createdAt,value
2019-04-16T00:00:42.472Z,96720.12
2019-04-16T00:02:06.552Z,96722.35
2019-04-16T00:03:13.869Z,96717.73
2019-04-16T00:04:53.732Z,96716.63
2019-04-16T00:06:04.847Z,96718.84
2019-04-16T00:07:40.503Z,96718.17
2019-04-16T00:08:57.320Z,96717.80
2019-04-16T00:10:14.296Z,96713.89
2019-04-16T00:11:43.596Z,96718.81
2019-04-16T00:13:25.169Z,96714.92
2019-04-16T00:14:40.944Z,96709.48
2019-04-16T00:15:48.153Z,96714.27
2019-04-16T00:16:55.379Z,96711.67
2019-04-16T00:18:02.624Z,96711.67
2019-04-16T00:19:11.045Z,96714.53
2019-04-16T00:20:18.244Z,96709.68
2019-04-16T00:21:42.450Z,96712.17
2019-04-16T00:22:56.070Z,96710.88
2019-04-16T00:24:18.587Z,96717.58
2019-04-16T00:25:26.000Z,96709.45
2019-04-16T00:26:33.300Z,96705.41
2019-04-16T00:27:40.527Z,96706.13
2019-04-16T00:28:47.750Z,96705.66
2019-04-16T00:29:55.038Z,96703.08
2019-04-16T00:31:04.678Z,96696.13
2019-04-16T00:32:30.205Z,96702.97
2019-04-16T00:33:39.337Z,96696.13
2019-04-16T00:34:46.369Z,96694.58
2019-04-16T00:35:56.113Z,96695.97
2019-04-16T00:37:06.134Z,96686.91
2019-04-16T00:38:13.353Z,96683.13
2019-04-16T00:39:24.613Z,96684.98
2019-04-16T00:40:29.636Z,96690.16
2019-04-16T00:41:36.849Z,96681.20
2019-04-16T00:42:44.056Z,96686.05
2019-04-16T00:43:51.313Z,96682.27
2019-04-16T00:44:58.631Z,96683.20
2019-04-16T00:46:08.324Z,96681.07
2019-04-16T00:47:15.635Z,96679.88
2019-04-16T00:48:22.855Z,96686.91
2019-04-16T00:49:30.080Z,96683.03
2019-04-16T00:50:37.308Z,96681.47
2019-04-16T00:51:44.531Z,96677.69
2019-04-16T00:52:51.757Z,96680.41
2019-04-16T00:53:58.982Z,96681.70
2019-04-16T00:55:06.984Z,96680.88
2019-04-16T00:56:16.150Z,96683.93
2019-04-16T00:57:23.108Z,96677.55
2019-04-16T00:58:30.353Z,96678.48
2019-04-16T00:59:37.602Z,96680.71
2019-04-16T01:00:44.800Z,96680.71
2019-04-16T01:01:52.030Z,96679.88
2019-04-16T01:02:59.238Z,96683.77
2019-04-16T01:04:06.716Z,96676.09
2019-04-16T01:05:13.967Z,96683.03
2019-04-16T01:06:21.181Z,96680.08
2019-04-16T01:07:28.404Z,96681.94
2019-04-16T01:08:35.631Z,96682.41
2019-04-16T01:09:42.855Z,96684.16
2019-04-16T01:10:50.111Z,96679.91
2019-04-16T01:11:57.352Z,96685.69
2019-04-16T01:13:05.627Z,96681.91
2019-04-16T01:14:12.916Z,96677.72
2019-04-16T01:15:20.257Z,96683.47
2019-04-16T01:16:27.483Z,96681.80
2019-04-16T01:17:36.024Z,96681.07
2019-04-16T01:18:43.587Z,96681.53
2019-04-16T01:19:50.813Z,96686.02
2019-04-16T01:20:58.093Z,96686.58
2019-04-16T01:22:05.577Z,96690.09
2019-04-16T01:23:17.512Z,96688.90
2019-04-16T01:24:21.707Z,96689.00
2019-04-16T01:25:29.012Z,96690.48
2019-04-16T01:26:36.218Z,96691.05
2019-04-16T01:27:47.435Z,96695.39
2019-04-16T01:29:11.988Z,96693.86
2019-04-16T01:30:26.235Z,96694.79
2019-04-16T01:31:50.083Z,96691.03
2019-04-16T01:33:31.275Z,96692.64
2019-04-16T01:34:52.663Z,96696.45
2019-04-16T01:36:09.670Z,96699.73
2019-04-16T01:37:34.372Z,96696.14
2019-04-16T01:38:52.416Z,96700.70
2019-04-16T01:39:59.984Z,96696.84
2019-04-16T01:41:09.955Z,96702.69
2019-04-16T01:42:17.199Z,96697.16
2019-04-16T01:43:25.865Z,96701.39
2019-04-16T01:44:33.397Z,96699.27
2019-04-16T01:45:40.644Z,96704.91
2019-04-16T01:46:47.857Z,96707.86
2019-04-16T01:47:55.080Z,96706.57
2019-04-16T01:49:02.324Z,96703.98
2019-04-16T01:50:12.937Z,96702.23
2019-04-16T01:51:18.827Z,96702.23
2019-04-16T01:52:26.028Z,96704.45
2019-04-16T01:53:33.217Z,96706.11
2019-04-16T01:54:40.428Z,96703.86
2019-04-16T01:55:47.672Z,96709.03
2019-04-16T01:56:59.489Z,96705.61
2019-04-16T01:58:03.977Z,96703.86
2019-04-16T01:59:11.191Z,96707.40
2019-04-16T02:00:18.792Z,96708.20
2019-04-16T02:01:26.003Z,96700.44
2019-04-16T02:02:33.228Z,96698.34
2019-04-16T02:03:40.441Z,96701.73
2019-04-16T02:04:48.441Z,96702.56
2019-04-16T02:05:56.554Z,96705.15
2019-04-16T02:07:03.885Z,96700.94
2019-04-16T02:08:11.111Z,96705.15
2019-04-16T02:09:22.671Z,96705.15
2019-04-16T02:10:27.230Z,96702.10
2019-04-16T02:11:34.662Z,96702.56
2019-04-16T02:12:43.881Z,96705.52
2019-04-16T02:13:50.827Z,96704.69
2019-04-16T02:14:58.008Z,96703.86
2019-04-16T02:16:05.246Z,96706.11
2019-04-16T02:17:12.433Z,96705.73
2019-04-16T02:18:19.668Z,96708.78
2019-04-16T02:19:26.862Z,96705.83
2019-04-16T02:20:38.586Z,96705.00
2019-04-16T02:21:43.279Z,96705.92
2019-04-16T02:22:50.566Z,96699.19
2019-04-16T02:23:57.775Z,96703.06
2019-04-16T02:25:05.046Z,96699.28
2019-04-16T02:26:13.234Z,96701.50
2019-04-16T02:27:20.456Z,96706.39
2019-04-16T02:28:28.891Z,96703.10
2019-04-16T02:29:36.244Z,96697.66
2019-04-16T02:30:43.443Z,96705.97
2019-04-16T02:31:51.755Z,96709.02
2019-04-16T02:32:59.783Z,96703.20
2019-04-16T02:34:06.993Z,96704.22
2019-04-16T02:35:14.428Z,96705.27
2019-04-16T02:36:21.637Z,96699.36
2019-04-16T02:37:35.432Z,96704.62
2019-04-16T02:38:37.740Z,96702.59
2019-04-16T02:39:49.272Z,96705.36
2019-04-16T02:40:53.883Z,96704.65
2019-04-16T02:42:01.072Z,96704.92
2019-04-16T02:43:08.420Z,96700.31
2019-04-16T02:44:17.650Z,96706.40
2019-04-16T02:45:26.213Z,96703.08
2019-04-16T02:46:34.189Z,96704.92
2019-04-16T02:47:42.428Z,96699.97
2019-04-16T02:48:51.545Z,96702.70
2019-04-16T02:49:59.833Z,96700.76
2019-04-16T02:51:15.990Z,96700.60
2019-04-16T02:52:40.920Z,96698.57
2019-04-16T02:54:17.067Z,96698.84
2019-04-16T02:55:45.945Z,96696.28
2019-04-16T02:57:00.429Z,96698.56
2019-04-16T02:58:11.770Z,96695.45
2019-04-16T02:59:25.287Z,96694.25
2019-04-16T03:00:50.423Z,96695.17
2019-04-16T03:02:08.475Z,96696.64
2019-04-16T03:03:22.262Z,96701.81
2019-04-16T03:04:34.595Z,96696.83
2019-04-16T03:05:44.372Z,96699.21
2019-04-16T03:06:51.642Z,96700.34
2019-04-16T03:08:01.449Z,96701.25
2019-04-16T03:09:09.646Z,96695.34
2019-04-16T03:10:17.145Z,96695.44
2019-04-16T03:11:24.341Z,96693.86
2019-04-16T03:12:31.583Z,96699.56
2019-04-16T03:13:38.796Z,96697.08
2019-04-16T03:14:47.083Z,96691.11
2019-04-16T03:16:07.093Z,96692.58
2019-04-16T03:17:30.698Z,96695.61
2019-04-16T03:18:47.398Z,96692.46
2019-04-16T03:19:54.151Z,96696.62
2019-04-16T03:21:01.347Z,96690.34
2019-04-16T03:22:08.786Z,96692.92
2019-04-16T03:23:16.052Z,96691.64
2019-04-16T03:24:23.263Z,96688.69
2019-04-16T03:25:31.690Z,96686.11
2019-04-16T03:26:38.927Z,96682.15
2019-04-16T03:27:46.127Z,96681.69
2019-04-16T03:28:55.591Z,96688.97
2019-04-16T03:30:03.405Z,96682.06
2019-04-16T03:31:20.255Z,96686.84
2019-04-16T03:32:20.144Z,96684.36
2019-04-16T03:33:27.371Z,96683.98
2019-04-16T03:34:34.579Z,96680.11
2019-04-16T03:35:41.779Z,96684.81
2019-04-16T03:36:48.971Z,96684.06
2019-04-16T03:37:56.183Z,96684.06
2019-04-16T03:39:04.729Z,96686.65
2019-04-16T03:40:17.192Z,96680.66
2019-04-16T03:41:20.968Z,96686.19
2019-04-16T03:42:28.226Z,96681.12
2019-04-16T03:43:36.472Z,96685.07
2019-04-16T03:44:43.676Z,96682.03
2019-04-16T03:45:50.902Z,96680.00
2019-04-16T03:46:58.128Z,96677.05
2019-04-16T03:48:05.326Z,96679.74
2019-04-16T03:49:12.537Z,96676.33
2019-04-16T03:50:20.708Z,96675.67
2019-04-16T03:51:28.155Z,96673.27
2019-04-16T03:52:37.522Z,96680.17
2019-04-16T03:53:46.546Z,96675.19
2019-04-16T03:54:54.129Z,96674.09
2019-04-16T03:56:01.981Z,96676.38
2019-04-16T03:57:09.176Z,96672.23
2019-04-16T03:58:16.417Z,96672.77
2019-04-16T03:59:23.613Z,96674.14
2019-04-16T04:00:30.853Z,96672.11
2019-04-16T04:01:38.063Z,96673.52
2019-04-16T04:02:45.274Z,96673.59
2019-04-16T04:03:54.502Z,96678.84
2019-04-16T04:05:06.378Z,96678.46
2019-04-16T04:06:10.635Z,96686.73
2019-04-16T04:07:18.018Z,96685.61
2019-04-16T04:08:25.732Z,96687.44
2019-04-16T04:09:33.031Z,96686.64
2019-04-16T04:10:40.208Z,96686.27
2019-04-16T04:11:47.504Z,96680.28
2019-04-16T04:12:54.715Z,96687.18
2019-04-16T04:14:01.951Z,96685.03
2019-04-16T04:15:09.392Z,96689.30
2019-04-16T04:16:16.902Z,96690.59
2019-04-16T04:17:25.227Z,96684.15
2019-04-16T04:18:32.422Z,96687.55
2019-04-16T04:19:39.645Z,96685.44
2019-04-16T04:20:49.621Z,96682.86
2019-04-16T04:21:55.746Z,96688.84
2019-04-16T04:23:02.991Z,96690.97
2019-04-16T04:24:10.198Z,96689.30
2019-04-16T04:25:17.410Z,96687.55
2019-04-16T04:26:24.664Z,96693.17
2019-04-16T04:27:31.847Z,96690.27
2019-04-16T04:28:39.058Z,96689.52
2019-04-16T04:29:46.611Z,96689.59
2019-04-16T04:30:53.968Z,96695.67
2019-04-16T04:32:03.417Z,96694.09
2019-04-16T04:33:11.790Z,96688.22
2019-04-16T04:34:19.033Z,96689.59
2019-04-16T04:35:26.227Z,96695.73
2019-04-16T04:36:33.437Z,96687.26
2019-04-16T04:37:40.676Z,96694.53
2019-04-16T04:38:47.875Z,96694.16
2019-04-16T04:39:55.100Z,96695.52
2019-04-16T04:41:02.297Z,96693.03
2019-04-16T04:42:10.610Z,96696.52
2019-04-16T04:43:18.247Z,96690.65
2019-04-16T04:44:25.489Z,96698.83
2019-04-16T04:45:32.909Z,96697.17
2019-04-16T04:46:40.136Z,96695.42
2019-04-16T04:47:51.247Z,96693.84
2019-04-16T04:48:59.923Z,96697.33
2019-04-16T04:50:05.780Z,96690.14
2019-04-16T04:51:13.015Z,96696.28
2019-04-16T04:52:20.262Z,96703.19
2019-04-16T04:53:27.497Z,96691.67
2019-04-16T04:54:34.844Z,96698.56
2019-04-16T04:55:42.068Z,96700.80
2019-04-16T04:56:49.282Z,96700.87
2019-04-16T04:57:56.491Z,96703.08
2019-04-16T04:59:05.184Z,96703.53
2019-04-16T05:00:12.849Z,96704.45
2019-04-16T05:01:20.048Z,96700.58
2019-04-16T05:02:27.291Z,96702.70
2019-04-16T05:03:48.262Z,96702.78
2019-04-16T05:05:03.613Z,96703.08
2019-04-16T05:06:12.835Z,96707.40
2019-04-16T05:07:20.253Z,96708.31
2019-04-16T05:08:28.704Z,96706.48
2019-04-16T05:09:36.852Z,96710.73
2019-04-16T05:10:58.023Z,96704.66
2019-04-16T05:11:53.121Z,96701.14
2019-04-16T05:13:00.328Z,96706.22
2019-04-16T05:14:07.539Z,96707.42
2019-04-16T05:15:15.818Z,96710.83
2019-04-16T05:16:23.057Z,96710.30
2019-04-16T05:17:30.818Z,96714.08
2019-04-16T05:18:38.279Z,96710.59
2019-04-16T05:19:47.029Z,96713.91
2019-04-16T05:20:54.270Z,96709.14
2019-04-16T05:22:01.474Z,96710.80
2019-04-16T05:23:11.093Z,96717.13
2019-04-16T05:24:18.292Z,96710.61
2019-04-16T05:25:25.517Z,96720.83
2019-04-16T05:26:33.620Z,96717.34
2019-04-16T05:27:41.701Z,96719.30
2019-04-16T05:28:48.920Z,96722.25
2019-04-16T05:29:56.129Z,96722.63
2019-04-16T05:31:03.357Z,96726.41
2019-04-16T05:32:11.541Z,96722.44
2019-04-16T05:33:18.752Z,96724.09
2019-04-16T05:34:25.949Z,96723.56
2019-04-16T05:35:33.159Z,96718.33
2019-04-16T05:36:40.401Z,96719.53
2019-04-16T05:37:48.573Z,96721.52
2019-04-16T05:38:56.554Z,96719.31
2019-04-16T05:40:03.954Z,96718.38
2019-04-16T05:41:13.726Z,96719.95
2019-04-16T05:42:22.423Z,96720.70
2019-04-16T05:43:30.290Z,96721.53
2019-04-16T05:44:37.960Z,96724.94
2019-04-16T05:45:45.185Z,96719.33
2019-04-16T05:46:53.493Z,96723.57
2019-04-16T05:48:00.859Z,96722.73
2019-04-16T05:49:08.138Z,96722.73
2019-04-16T05:50:15.514Z,96723.57
2019-04-16T05:51:22.830Z,96726.98
2019-04-16T05:52:32.260Z,96726.90
2019-04-16T05:53:40.964Z,96733.27
2019-04-16T05:55:07.166Z,96733.72
2019-04-16T05:56:24.987Z,96728.94
2019-04-16T05:57:34.637Z,96729.48
2019-04-16T05:58:41.859Z,96728.27
2019-04-16T05:59:49.070Z,96724.41
2019-04-16T06:01:10.459Z,96724.32
2019-04-16T06:02:23.656Z,96730.77
2019-04-16T06:03:30.852Z,96726.61
2019-04-16T06:04:38.063Z,96730.55
2019-04-16T06:05:45.246Z,96727.60
2019-04-16T06:06:52.536Z,96727.98
2019-04-16T06:08:10.327Z,96724.11
2019-04-16T06:09:17.681Z,96728.81
2019-04-16T06:10:24.895Z,96726.69
2019-04-16T06:11:35.659Z,96732.22
2019-04-16T06:12:58.493Z,96726.61
2019-04-16T06:14:17.031Z,96728.73
2019-04-16T06:15:41.953Z,96717.91
2019-04-16T06:17:07.091Z,96721.44
2019-04-16T06:18:20.708Z,96721.20
2019-04-16T06:19:53.093Z,96722.73
2019-04-16T06:21:18.126Z,96716.28
2019-04-16T06:23:00.627Z,96720.16
2019-04-16T06:24:24.791Z,96718.48
2019-04-16T06:25:49.746Z,96718.31
2019-04-16T06:27:20.543Z,96722.44
2019-04-16T06:29:00.212Z,96725.92
2019-04-16T06:30:33.851Z,96728.16
2019-04-16T06:32:02.201Z,96730.73
2019-04-16T06:33:18.997Z,96731.65
2019-04-16T06:34:45.628Z,96733.93
2019-04-16T06:36:11.706Z,96738.55
2019-04-16T06:37:27.174Z,96734.14
2019-04-16T06:38:40.589Z,96736.45
2019-04-16T06:40:05.954Z,96737.87
2019-04-16T06:41:41.382Z,96731.55
2019-04-16T06:42:55.195Z,96736.25
2019-04-16T06:44:04.257Z,96734.80
2019-04-16T06:45:19.092Z,96740.53
2019-04-16T06:46:51.292Z,96735.02
2019-04-16T06:48:13.135Z,96733.40
2019-04-16T06:49:52.128Z,96733.58
2019-04-16T06:51:17.535Z,96735.90
2019-04-16T06:52:38.512Z,96731.20
2019-04-16T06:53:57.477Z,96732.86
2019-04-16T06:55:14.067Z,96735.27
2019-04-16T06:56:43.228Z,96735.36
2019-04-16T06:58:15.813Z,96728.58
2019-04-16T06:59:33.371Z,96736.48
2019-04-16T07:01:08.767Z,96731.99
2019-04-16T07:02:37.258Z,96735.23
2019-04-16T07:04:00.193Z,96733.86
2019-04-16T07:05:15.814Z,96731.11
2019-04-16T07:06:45.101Z,96728.86
2019-04-16T07:08:08.735Z,96729.52
2019-04-16T07:09:26.423Z,96731.30
2019-04-16T07:10:44.610Z,96724.56
2019-04-16T07:11:54.520Z,96724.30
2019-04-16T07:13:00.779Z,96727.78
2019-04-16T07:14:08.014Z,96730.77
2019-04-16T07:15:15.638Z,96727.70
2019-04-16T07:16:27.934Z,96722.65
2019-04-16T07:17:33.749Z,96722.72
2019-04-16T07:18:41.838Z,96719.78
2019-04-16T07:19:49.044Z,96719.14
2019-04-16T07:20:56.246Z,96720.04
2019-04-16T07:22:03.545Z,96725.80
2019-04-16T07:23:11.718Z,96727.98
2019-04-16T07:24:22.438Z,96725.22
2019-04-16T07:25:29.594Z,96724.95
2019-04-16T07:26:39.489Z,96727.69
2019-04-16T07:28:00.410Z,96721.88
2019-04-16T07:29:16.292Z,96720.41
2019-04-16T07:30:45.294Z,96725.38
2019-04-16T07:32:11.301Z,96722.48
2019-04-16T07:33:33.467Z,96718.34
2019-04-16T07:34:51.793Z,96721.91
2019-04-16T07:36:06.581Z,96713.77
2019-04-16T07:37:51.147Z,96713.03
2019-04-16T07:39:13.427Z,96714.02
2019-04-16T07:40:51.269Z,96716.04
2019-04-16T07:42:21.388Z,96712.61
2019-04-16T07:43:42.854Z,96716.64
2019-04-16T07:45:11.438Z,96714.59
2019-04-16T07:46:47.053Z,96719.91
2019-04-16T07:48:23.983Z,96719.82
2019-04-16T07:49:43.224Z,96714.09
2019-04-16T07:51:18.404Z,96712.97
2019-04-16T07:52:42.055Z,96713.84
2019-04-16T07:54:07.495Z,96711.70
2019-04-16T07:55:39.469Z,96711.92
2019-04-16T07:56:49.073Z,96710.70
2019-04-16T07:57:56.305Z,96708.62
2019-04-16T07:59:03.501Z,96714.53
2019-04-16T08:00:11.388Z,96706.60
2019-04-16T08:01:18.618Z,96710.42
2019-04-16T08:02:25.919Z,96711.22
2019-04-16T08:03:33.125Z,96713.27
2019-04-16T08:04:40.366Z,96713.80
2019-04-16T08:05:47.577Z,96719.02
2019-04-16T08:06:55.870Z,96721.66
2019-04-16T08:08:03.085Z,96722.29
2019-04-16T08:09:11.266Z,96723.25
2019-04-16T08:10:20.264Z,96724.34
2019-04-16T08:11:27.568Z,96727.78
2019-04-16T08:12:35.568Z,96731.00
2019-04-16T08:13:43.007Z,96735.05
2019-04-16T08:14:50.215Z,96733.08
2019-04-16T08:15:57.611Z,96736.16
2019-04-16T08:17:05.069Z,96737.62
2019-04-16T08:18:12.328Z,96734.22
2019-04-16T08:19:20.617Z,96737.80
2019-04-16T08:20:27.828Z,96731.36
2019-04-16T08:21:35.055Z,96734.08
2019-04-16T08:22:47.204Z,96734.48
2019-04-16T08:23:56.497Z,96728.88
2019-04-16T08:25:04.438Z,96730.22
2019-04-16T08:26:13.649Z,96722.81
2019-04-16T08:27:20.545Z,96725.81
2019-04-16T08:28:27.771Z,96721.46
2019-04-16T08:29:35.012Z,96717.25
2019-04-16T08:30:42.223Z,96717.28
2019-04-16T08:31:49.783Z,96724.61
2019-04-16T08:32:56.994Z,96718.98
2019-04-16T08:34:04.205Z,96722.05
2019-04-16T08:35:11.535Z,96716.53
2019-04-16T08:36:19.466Z,96717.00
2019-04-16T08:37:26.688Z,96712.78
2019-04-16T08:38:34.970Z,96715.52
2019-04-16T08:39:42.310Z,96720.23
2019-04-16T08:40:49.523Z,96712.69
2019-04-16T08:41:56.746Z,96714.59
2019-04-16T08:43:03.988Z,96718.95
2019-04-16T08:44:11.200Z,96716.14
2019-04-16T08:45:20.564Z,96713.20
2019-04-16T08:46:28.301Z,96718.03
2019-04-16T08:47:35.727Z,96715.13
2019-04-16T08:48:42.953Z,96710.18
2019-04-16T08:49:53.770Z,96710.64
2019-04-16T08:50:59.343Z,96709.12
2019-04-16T08:52:10.154Z,96708.89
2019-04-16T08:53:16.773Z,96704.77
2019-04-16T08:54:24.027Z,96706.16
2019-04-16T08:55:31.248Z,96695.06
2019-04-16T08:56:38.439Z,96693.78
2019-04-16T08:57:47.088Z,96690.81
2019-04-16T08:58:58.378Z,96695.55
2019-04-16T09:00:03.680Z,96699.89
2019-04-16T09:01:15.490Z,96702.98
2019-04-16T09:02:23.585Z,96700.03
2019-04-16T09:03:32.282Z,96698.82
2019-04-16T09:04:39.510Z,96696.81
2019-04-16T09:05:46.778Z,96697.77
2019-04-16T09:06:54.006Z,96699.05
2019-04-16T09:08:13.734Z,96699.16
2019-04-16T09:09:38.956Z,96695.50
2019-04-16T09:10:46.168Z,96696.56
2019-04-16T09:11:56.526Z,96700.11
2019-04-16T09:13:06.244Z,96701.14
2019-04-16T09:14:13.618Z,96699.96
2019-04-16T09:15:27.576Z,96695.70
2019-04-16T09:16:37.649Z,96694.02
2019-04-16T09:17:47.422Z,96693.22
2019-04-16T09:19:00.786Z,96696.61
2019-04-16T09:20:22.936Z,96692.34
2019-04-16T09:21:28.860Z,96701.81
2019-04-16T09:22:48.158Z,96699.17
2019-04-16T09:24:08.912Z,96693.95
2019-04-16T09:25:26.644Z,96701.13
2019-04-16T09:26:43.834Z,96702.89
2019-04-16T09:27:54.964Z,96702.97
2019-04-16T09:29:30.225Z,96706.03
2019-04-16T09:30:59.353Z,96699.16
2019-04-16T09:32:17.727Z,96697.03
2019-04-16T09:33:46.631Z,96693.83
2019-04-16T09:35:18.355Z,96692.13
2019-04-16T09:36:42.519Z,96686.89
2019-04-16T09:38:20.996Z,96691.28
2019-04-16T09:40:16.003Z,96682.16
2019-04-16T09:41:23.219Z,96693.53
2019-04-16T09:42:30.445Z,96699.09
2019-04-16T09:43:41.040Z,96689.09
2019-04-16T09:44:48.254Z,96691.56
2019-04-16T09:46:09.609Z,96686.88
2019-04-16T09:47:05.835Z,96687.78
2019-04-16T09:48:13.269Z,96688.93
2019-04-16T09:49:20.662Z,96692.66
2019-04-16T09:50:27.879Z,96682.33
2019-04-16T09:51:35.106Z,96687.95
2019-04-16T09:52:42.367Z,96684.84
2019-04-16T09:53:49.621Z,96686.30
2019-04-16T09:54:56.862Z,96668.84
2019-04-16T09:56:23.359Z,96676.59
2019-04-16T09:57:32.292Z,96677.38
2019-04-16T09:58:42.550Z,96676.08
2019-04-16T09:59:53.456Z,96671.56
2019-04-16T10:01:10.403Z,96670.31
2019-04-16T10:02:24.026Z,96679.05
2019-04-16T10:03:33.378Z,96674.14
2019-04-16T10:04:40.636Z,96678.94
2019-04-16T10:05:47.903Z,96669.41
2019-04-16T10:06:55.117Z,96668.36
2019-04-16T10:08:02.336Z,96669.37
2019-04-16T10:09:09.676Z,96662.23
2019-04-16T10:10:17.095Z,96665.89
2019-04-16T10:11:24.507Z,96671.80
2019-04-16T10:12:31.752Z,96664.84
2019-04-16T10:13:38.972Z,96665.76
2019-04-16T10:14:46.220Z,96668.19
2019-04-16T10:15:55.664Z,96663.22
2019-04-16T10:17:02.370Z,96666.31
2019-04-16T10:18:09.565Z,96664.20
2019-04-16T10:19:17.012Z,96661.70
2019-04-16T10:20:24.256Z,96664.09
2019-04-16T10:21:31.517Z,96666.03
2019-04-16T10:22:38.745Z,96669.23
2019-04-16T10:24:01.871Z,96666.32
2019-04-16T10:25:13.355Z,96665.60
2019-04-16T10:26:20.749Z,96662.37
2019-04-16T10:27:36.206Z,96662.09
2019-04-16T10:28:44.131Z,96658.17
2019-04-16T10:29:51.313Z,96667.80
2019-04-16T10:30:58.515Z,96664.20
2019-04-16T10:32:05.729Z,96665.09
2019-04-16T10:33:12.954Z,96666.33
2019-04-16T10:34:20.513Z,96666.08
2019-04-16T10:35:27.777Z,96664.39
2019-04-16T10:36:38.034Z,96660.59
2019-04-16T10:37:43.939Z,96666.41
2019-04-16T10:38:58.148Z,96669.15
2019-04-16T10:40:13.747Z,96669.86
2019-04-16T10:41:49.120Z,96665.03
2019-04-16T10:43:15.076Z,96669.70
2019-04-16T10:44:39.943Z,96666.17
2019-04-16T10:46:05.070Z,96669.84
2019-04-16T10:47:28.917Z,96666.88
2019-04-16T10:49:03.935Z,96667.36
2019-04-16T10:50:33.159Z,96664.27
2019-04-16T10:52:05.246Z,96663.48
2019-04-16T10:53:30.523Z,96661.75
2019-04-16T10:54:42.404Z,96656.54
2019-04-16T10:56:07.343Z,96655.09
2019-04-16T10:57:26.671Z,96652.72
2019-04-16T10:59:02.157Z,96656.18
2019-04-16T11:00:36.165Z,96659.53
2019-04-16T11:01:51.870Z,96664.91
2019-04-16T11:03:22.379Z,96652.79
2019-04-16T11:05:03.037Z,96648.58
2019-04-16T11:06:27.051Z,96642.70
2019-04-16T11:07:34.245Z,96647.80
2019-04-16T11:08:41.481Z,96646.99
2019-04-16T11:09:48.740Z,96649.03
2019-04-16T11:10:55.965Z,96647.73
2019-04-16T11:12:05.384Z,96644.14
2019-04-16T11:13:25.120Z,96650.73
2019-04-16T11:14:32.361Z,96648.50
2019-04-16T11:15:39.688Z,96645.22
2019-04-16T11:16:48.768Z,96640.52
2019-04-16T11:17:56.056Z,96641.41
2019-04-16T11:19:03.403Z,96643.08
2019-04-16T11:20:12.184Z,96645.10
2019-04-16T11:21:19.482Z,96635.14
2019-04-16T11:22:26.747Z,96634.67
2019-04-16T11:23:33.956Z,96635.38
2019-04-16T11:24:41.203Z,96633.78
2019-04-16T11:25:48.428Z,96633.52
2019-04-16T11:26:55.640Z,96635.51
2019-04-16T11:28:02.867Z,96632.44
2019-04-16T11:29:10.120Z,96622.13
2019-04-16T11:30:35.056Z,96629.73
2019-04-16T11:31:42.275Z,96628.60
2019-04-16T11:32:49.534Z,96622.29
2019-04-16T11:33:56.781Z,96621.67
2019-04-16T11:35:04.002Z,96619.74
2019-04-16T11:36:19.611Z,96623.55
2019-04-16T11:37:20.115Z,96620.09
2019-04-16T11:38:27.372Z,96622.08
2019-04-16T11:39:34.559Z,96625.70
2019-04-16T11:40:41.841Z,96620.97
2019-04-16T11:41:49.685Z,96622.30
2019-04-16T11:42:56.917Z,96618.89
2019-04-16T11:44:15.270Z,96621.38
2019-04-16T11:45:14.513Z,96627.45
2019-04-16T11:46:22.059Z,96625.69
2019-04-16T11:47:33.803Z,96622.27
2019-04-16T11:48:38.413Z,96621.27
2019-04-16T11:49:45.760Z,96623.75
2019-04-16T11:50:53.014Z,96617.20
2019-04-16T11:52:00.303Z,96619.67
2019-04-16T11:53:07.483Z,96625.58
2019-04-16T11:54:14.703Z,96624.42
2019-04-16T11:55:21.917Z,96621.46
2019-04-16T11:56:30.144Z,96618.34
2019-04-16T11:57:37.388Z,96618.02
2019-04-16T11:58:47.854Z,96615.70
2019-04-16T12:00:06.702Z,96622.29
2019-04-16T12:01:17.218Z,96622.29
2019-04-16T12:02:28.807Z,96620.64
2019-04-16T12:03:47.559Z,96611.77
2019-04-16T12:05:19.777Z,96614.41
2019-04-16T12:06:34.749Z,96614.06
2019-04-16T12:08:06.804Z,96616.55
2019-04-16T12:09:24.244Z,96616.55
2019-04-16T12:10:56.431Z,96616.20
2019-04-16T12:12:08.922Z,96618.34
2019-04-16T12:13:34.032Z,96612.61
2019-04-16T12:15:12.269Z,96610.13
2019-04-16T12:16:37.118Z,96608.81
2019-04-16T12:18:02.078Z,96608.31
2019-04-16T12:19:27.024Z,96607.66
2019-04-16T12:20:46.548Z,96606.69
2019-04-16T12:22:05.269Z,96604.70
2019-04-16T12:23:49.925Z,96610.79
2019-04-16T12:25:21.972Z,96601.23
2019-04-16T12:26:53.692Z,96604.52
2019-04-16T12:28:22.758Z,96600.11
2019-04-16T12:29:47.692Z,96604.03
2019-04-16T12:31:16.273Z,96599.61
2019-04-16T12:32:37.147Z,96596.45
2019-04-16T12:34:10.294Z,96596.78
2019-04-16T12:35:34.735Z,96591.98
2019-04-16T12:36:50.848Z,96599.70
2019-04-16T12:38:18.754Z,96596.55
2019-04-16T12:39:48.946Z,96598.84
2019-04-16T12:41:19.242Z,96598.52
2019-04-16T12:42:41.238Z,96597.36
2019-04-16T12:44:03.013Z,96595.55
2019-04-16T12:45:33.104Z,96602.25
2019-04-16T12:46:58.100Z,96604.38
2019-04-16T12:48:26.988Z,96606.17
2019-04-16T12:49:46.524Z,96602.06
2019-04-16T12:51:24.798Z,96599.44
2019-04-16T12:52:38.824Z,96603.27
2019-04-16T12:54:02.461Z,96593.86
2019-04-16T12:55:31.447Z,96589.59
2019-04-16T12:57:10.637Z,96596.33
2019-04-16T12:58:39.092Z,96594.56
2019-04-16T13:00:11.744Z,96594.73
2019-04-16T13:01:24.772Z,96597.89
2019-04-16T13:03:01.740Z,96597.23
2019-04-16T13:04:13.736Z,96597.70
2019-04-16T13:05:31.554Z,96600.66
2019-04-16T13:06:46.808Z,96599.50
2019-04-16T13:08:11.648Z,96599.30
2019-04-16T13:09:52.904Z,96599.13
2019-04-16T13:11:17.186Z,96602.06
2019-04-16T13:12:46.355Z,96592.80
2019-04-16T13:14:21.321Z,96595.41
2019-04-16T13:15:48.096Z,96592.41
2019-04-16T13:17:08.223Z,96587.19
2019-04-16T13:18:37.293Z,96597.56
2019-04-16T13:19:50.808Z,96596.91
2019-04-16T13:21:19.997Z,96590.82
2019-04-16T13:22:31.060Z,96589.49
2019-04-16T13:23:41.092Z,96593.06
2019-04-16T13:24:52.475Z,96595.34
2019-04-16T13:26:18.064Z,96589.54
2019-04-16T13:27:30.995Z,96591.50
2019-04-16T13:28:38.187Z,96587.77
2019-04-16T13:29:46.267Z,96586.80
2019-04-16T13:30:53.511Z,96585.31
2019-04-16T13:32:00.733Z,96580.89
2019-04-16T13:33:08.941Z,96587.14
2019-04-16T13:34:18.619Z,96585.66
2019-04-16T13:35:25.067Z,96577.08
2019-04-16T13:36:32.354Z,96581.79
2019-04-16T13:37:39.579Z,96578.42
2019-04-16T13:38:52.326Z,96577.40
2019-04-16T13:40:05.257Z,96572.59
2019-04-16T13:41:12.633Z,96576.96
2019-04-16T13:42:19.950Z,96581.88
2019-04-16T13:43:33.708Z,96574.61
2019-04-16T13:44:45.191Z,96581.20
2019-04-16T13:45:52.410Z,96573.14
2019-04-16T13:47:02.964Z,96577.59
2019-04-16T13:48:27.242Z,96580.55
2019-04-16T13:49:43.673Z,96580.70
2019-04-16T13:50:59.221Z,96583.98
2019-04-16T13:52:07.742Z,96580.85
2019-04-16T13:53:28.982Z,96583.28
2019-04-16T13:54:42.208Z,96580.45
2019-04-16T13:56:08.434Z,96583.06
2019-04-16T13:57:18.052Z,96580.02
2019-04-16T13:58:35.752Z,96573.73
2019-04-16T14:00:04.342Z,96576.45
2019-04-16T14:01:18.679Z,96577.27
2019-04-16T14:02:51.985Z,96582.05
2019-04-16T14:03:59.550Z,96581.53
2019-04-16T14:05:10.844Z,96582.28
2019-04-16T14:06:17.275Z,96579.13
2019-04-16T14:07:25.561Z,96575.22
2019-04-16T14:08:32.908Z,96580.39
2019-04-16T14:09:40.119Z,96577.05
2019-04-16T14:10:47.345Z,96572.70
2019-04-16T14:11:54.571Z,96582.41
2019-04-16T14:13:01.797Z,96583.72
2019-04-16T14:14:09.024Z,96578.48
2019-04-16T14:15:31.133Z,96581.36
2019-04-16T14:16:25.726Z,96580.08